Portsmouth, North Carolina
Current Conditions -  °F | °C
As of 7:51 AM on Saturday 25 Oct 2014 (Local Time) from KHSE Reporting Station
Clear Clear  
Wind Chill: 57°   Ceiling: Unl
Heat Index: 57°   Visibility: 10mi
Dew Point: 53°   Wind: 3mph
Humidity: 87%   Direction: 350°N
Pressure: 29.97"   Gusts: NA
Location:  35.1144°N, 75.9815°W
Report Text: KHSE 251151Z AUTO 35003KT 10SM CLR 14/12 A2997 RMK AO2 SLP148 T01390117 10139 20100 51008 TSNO
Loading
Personal Weather Stations






























Interactive Weather Map
Tropical Storm Tracking
New forecast layout! Learn more

10-Day Weather Forecast

Advertisements
Track Severe Weather on mobile